Latest Weather Observations for Pearce

IDW60801

Issued at 1:03 pm WST Saturday 24 June 2017 (issued every 30 minutes, with the page automatically refreshed every 10 minutes)

About weather observations | Map of weather stations | Latest weather observations for WA | Other Formats
Station Details ID: 009053 Name: PEARCE RAAF Lat: -31.67 Lon: 116.02 Height: 40.0 m
Data from the previous 72 hours. | See also: Recent months at Pearce
Date/Time
WST
Temp
°C
App
Temp
°C
Dew
Point
°C
Rel
Hum
%
Delta-T
°C
Wind Press
QNH
hPa
Press
MSL
hPa
Rain since
9am
mm
Dir  Spd
km/h
Gust
km/h
Spd
kts
Gust
kts
24/01:00pm 17.2 13.0 8.1 55 4.6 ESE 20 32 11 17 1023.6 1023.6 0.0
24/12:30pm 17.4 12.1 8.3 55 4.6 ESE 26 35 14 19 1023.9 1023.9 0.0
24/12:00pm 17.4 13.3 8.5 56 4.6 SE 20 28 11 15 1024.3 1024.3 0.0
24/11:30am 16.3 11.2 7.5 56 4.4 ESE 24 37 13 20 1024.7 1024.7 0.0
24/11:00am 16.5 13.2 8.0 57 4.3 E 15 33 8 18 1024.9 1024.9 0.0
24/10:30am 15.9 11.6 7.7 58 4.1 E 20 35 11 19 1025.3 1025.3 0.0
24/10:00am 15.4 10.4 8.2 62 3.6 E 24 39 13 21 1025.3 1025.3 0.0
24/09:30am 14.8 11.9 8.3 65 3.3 E 13 24 7 13 1025.6 1025.6 0.0
24/09:00am 13.7 10.4 8.1 69 2.8 SE 15 32 8 17 1025.6 1025.6 0.0
24/08:30am 12.8 9.4 7.7 71 2.5 S 15 22 8 12 1025.3 1025.3 0.0
24/08:00am 12.2 9.1 7.3 72 2.4 SSE 13 22 7 12 1024.9 1024.9 0.0
24/07:30am 11.9 9.1 7.0 72 2.4 SSE 11 17 6 9 1024.4 1024.4 0.0
24/07:00am 12.1 9.4 7.4 73 2.3 SE 11 20 6 11 1024.0 1024.0 0.0
24/06:30am 12.3 9.7 7.6 73 2.3 ESE 11 20 6 11 1023.8 1023.8 0.0
24/06:00am 12.0 8.5 7.3 73 2.3 ESE 15 28 8 15 1023.8 1023.8 0.0
24/05:30am 12.1 9.8 7.4 73 2.3 SE 9 28 5 15 1023.6 1023.6 0.0
24/05:00am 12.4 8.6 7.5 72 2.4 SE 17 28 9 15 1023.7 1023.7 0.0
24/04:30am 12.4 9.0 7.7 73 2.3 E 15 39 8 21 1023.4 1023.4 0.0
24/04:00am 12.7 7.3 7.8 72 2.4 E 26 37 14 20 1023.3 1023.3 0.0
24/03:30am 13.0 6.4 7.9 71 2.5 E 32 46 17 25 1023.2 1023.2 0.0
24/03:00am 13.1 6.6 8.0 71 2.5 E 32 48 17 26 1023.3 1023.3 0.0
24/02:54am 13.2 7.1 8.1 71 2.5 E 30 48 16 26 1023.3 1023.3 0.0
24/02:30am 13.2 6.7 8.3 72 2.4 E 32 44 17 24 1023.3 1023.3 0.0
24/02:20am 13.2 7.5 8.5 73 2.4 E 28 46 15 25 1023.4 1023.4 0.0
24/02:00am 13.2 7.6 8.7 74 2.2 E 28 41 15 22 1023.6 1023.6 0.0
24/01:30am 13.2 8.4 8.7 74 2.3 E 24 37 13 20 1023.7 1023.7 0.0
24/01:00am 13.4 9.4 9.1 75 2.2 E 20 33 11 18 1023.8 1023.8 0.0
24/12:30am 13.5 9.8 9.4 76 2.1 E 19 32 10 17 1023.8 1023.8 0.0
24/12:00am 14.1 9.8 9.5 74 2.4 ESE 22 37 12 20 1023.6 1023.6 0.0
 
Date/Time
WST
Temp
°C
App
Temp
°C
Dew
Point
°C
Rel
Hum
%
Delta-T
°C
Wind Press
QNH
hPa
Press
MSL
hPa
Rain since
9am
mm
Dir  Spd
km/h
Gust
km/h
Spd
kts
Gust
kts
23/11:30pm 14.5 10.3 9.7 73 2.5 ESE 22 37 12 20 1023.6 1023.6 0.0
23/11:00pm 14.8 10.0 10.2 74 2.4 SE 26 37 14 20 1023.6 1023.6 0.0
23/10:30pm 14.8 11.2 10.4 75 2.3 SE 20 35 11 19 1023.4 1023.4 0.0
23/10:00pm 14.9 11.8 10.3 74 2.4 ESE 17 32 9 17 1022.9 1022.9 0.0
23/09:30pm 15.1 10.0 10.5 74 2.4 ESE 28 43 15 23 1022.7 1022.7 0.0
23/09:22pm 15.3 10.2 10.7 74 2.4 ESE 28 50 15 27 1022.7 1022.7 0.0
23/09:00pm 15.0 10.7 10.8 76 2.2 SE 24 33 13 18 1022.5 1022.5 0.0
23/08:30pm 15.2 11.0 11.0 76 2.2 ESE 24 39 13 21 1022.2 1022.2 0.0
23/08:00pm 15.2 11.8 11.2 77 2.1 SE 20 30 11 16 1022.1 1022.1 0.0
23/07:30pm 15.1 11.9 11.1 77 2.1 SE 19 28 10 15 1021.8 1021.8 0.0
23/07:00pm 15.3 12.4 11.1 76 2.2 SE 17 20 9 11 1021.7 1021.7 0.0
23/06:30pm 15.5 13.0 10.9 74 2.5 SE 15 19 8 10 1021.3 1021.3 0.0
23/06:00pm 16.3 13.8 11.2 72 2.7 SE 15 24 8 13 1020.9 1020.9 0.0
23/05:30pm 16.8 15.2 11.7 72 2.8 E 11 19 6 10 1020.5 1020.5 0.0
23/05:00pm 17.1 14.4 11.6 70 3.0 E 17 30 9 16 1020.2 1020.2 0.0
23/04:30pm 17.4 14.4 11.9 70 3.0 ESE 19 30 10 16 1019.9 1019.9 0.0
23/04:00pm 17.2 12.5 11.9 71 2.9 SE 28 37 15 20 1019.6 1019.6 0.0
23/03:30pm 17.3 13.5 12.4 73 2.7 ESE 24 35 13 19 1019.4 1019.4 0.0
23/03:00pm 18.0 13.7 12.2 69 3.2 ESE 26 35 14 19 1019.0 1019.0 0.0
23/02:30pm 18.4 14.2 12.4 68 3.3 E 26 43 14 23 1018.7 1018.7 0.0
23/02:00pm 17.3 12.3 12.2 72 2.8 ESE 30 41 16 22 1018.7 1018.7 0.0
23/01:30pm 17.5 12.7 13.0 75 2.5 ESE 30 41 16 22 1018.8 1018.8 0.0
23/01:00pm 16.9 11.6 12.4 75 2.5 SE 32 43 17 23 1018.9 1018.9 0.0
23/12:30pm 18.3 13.7 12.3 68 3.3 ESE 28 35 15 19 1019.0 1019.0 0.0
23/12:00pm 18.2 13.5 12.0 67 3.4 E 28 41 15 22 1019.1 1019.1 0.0
23/11:50am 18.6 14.1 12.6 68 3.4 ESE 28 46 15 25 1019.2 1019.2 0.0
23/11:30am 17.9 13.6 12.1 69 3.2 ESE 26 39 14 21 1019.3 1019.3 0.0
23/11:00am 18.4 14.7 12.8 70 3.1 ESE 24 35 13 19 1019.4 1019.4 0.0
23/10:30am 17.8 14.9 12.9 73 2.7 E 20 32 11 17 1019.3 1019.3 0.0
23/10:00am 16.8 13.8 12.5 76 2.4 E 20 32 11 17 1019.2 1019.2 0.0
23/09:30am 16.6 13.7 12.4 76 2.3 E 19 26 10 14 1018.9 1018.9 0.0
23/09:00am 15.9 12.8 12.1 78 2.1 E 20 30 11 16 1018.5 1018.4 1.4
23/08:30am 15.0 12.5 12.3 84 1.5 E 17 24 9 13 1018.2 1018.1 1.4
23/08:00am 14.8 11.8 12.1 84 1.5 E 19 26 10 14 1017.5 1017.4 1.4
23/07:30am 14.3 11.8 12.2 87 1.1 E 17 24 9 13 1017.0 1016.9 1.4
23/07:00am 14.3 11.2 12.2 87 1.1 E 20 28 11 15 1016.5 1016.4 1.4
23/06:30am 14.2 11.2 12.1 87 1.1 ESE 19 26 10 14 1015.9 1015.8 1.4
23/06:00am 14.1 11.1 12.1 88 1.1 E 19 28 10 15 1015.4 1015.3 1.4
23/05:30am 13.9 11.4 12.3 90 0.9 E 17 24 9 13 1014.7 1014.7 1.4
23/05:00am 13.9 11.6 11.9 88 1.1 E 15 20 8 11 1014.3 1014.3 1.4
23/04:30am 13.8 12.0 12.2 90 0.9 ESE 13 17 7 9 1013.9 1013.9 1.4
23/04:00am 13.6 11.4 12.0 90 0.9 ESE 15 20 8 11 1013.7 1013.7 1.4
23/03:30am 13.5 11.7 12.1 91 0.8 SE 13 20 7 11 1013.4 1013.4 1.4
23/03:00am 13.2 11.7 11.9 92 0.7 SSE 11 15 6 8 1012.9 1012.9 1.2
23/02:31am 13.1 12.4 12.0 93 0.6 ESE 7 11 4 6 1012.7 1012.7 1.2
23/02:30am 13.1 12.4 12.0 93 0.6 ESE 7 11 4 6 1012.7 1012.7 1.2
23/02:21am 13.1 12.4 12.0 93 0.6 ESE 7 11 4 6 1012.7 1012.7 1.2
23/02:00am 13.2 12.1 12.1 93 0.6 ESE 9 13 5 7 1012.5 1012.5 1.2
23/01:55am 13.2 12.1 12.1 93 0.6 ESE 9 15 5 8 1012.4 1012.4 1.2
23/01:37am 13.1 11.3 12.0 93 0.6 E 13 17 7 9 1012.1 1012.1 1.2
23/01:30am 13.1 11.6 12.0 93 0.6 E 11 17 6 9 1012.0 1012.0 1.2
23/01:20am 13.1 11.6 12.0 93 0.6 E 11 17 6 9 1011.9 1011.9 1.2
23/01:00am 13.2 12.5 12.1 93 0.6 S 7 11 4 6 1011.7 1011.7 1.2
23/12:44am 13.1 12.6 12.0 93 0.6 SSW 6 7 3 4 1011.6 1011.6 1.2
23/12:30am 13.0 12.5 11.9 93 0.6 SSW 6 7 3 4 1011.5 1011.5 1.2
23/12:00am 13.2 13.8 11.8 91 0.7 CALM 0 4 0 2 1011.3 1011.3 1.0
 
Date/Time
WST
Temp
°C
App
Temp
°C
Dew
Point
°C
Rel
Hum
%
Delta-T
°C
Wind Press
QNH
hPa
Press
MSL
hPa
Rain since
9am
mm
Dir  Spd
km/h
Gust
km/h
Spd
kts
Gust
kts
22/11:45pm 13.2 12.6 11.6 90 0.9 SSW 6 9 3 5 1011.2 1011.2 1.0
22/11:30pm 13.4 11.7 11.3 87 1.1 SSW 11 13 6 7 1011.2 1011.2 1.0
22/11:10pm 13.8 12.5 11.1 84 1.4 SSW 9 15 5 8 1011.1 1011.1 1.0
22/11:00pm 13.9 12.2 11.1 83 1.5 SSW 11 15 6 8 1011.1 1011.1 1.0
22/10:30pm 14.1 12.3 10.9 81 1.7 SW 11 15 6 8 1011.1 1011.1 1.0
22/10:00pm 14.1 11.6 10.9 81 1.7 SW 15 24 8 13 1011.1 1011.1 1.0
22/09:30pm 14.2 11.2 10.8 80 1.8 SW 17 24 9 13 1011.2 1011.2 1.0
22/09:00pm 14.3 11.4 10.9 80 1.8 SW 17 24 9 13 1011.1 1011.1 1.0
22/08:30pm 14.4 10.1 10.8 79 1.9 SW 24 33 13 18 1011.0 1011.0 1.0
22/08:00pm 14.6 10.3 10.8 78 2.0 SW 24 32 13 17 1011.0 1011.0 1.0
22/07:30pm 14.3 10.7 10.7 79 1.9 SW 20 28 11 15 1011.0 1011.0 1.0
22/07:00pm 14.6 11.3 11.0 79 1.9 WSW 19 28 10 15 1011.2 1011.2 1.0
22/06:30pm 14.8 11.4 11.2 79 1.9 WSW 20 30 11 16 1011.2 1011.2 1.0
22/06:00pm 15.1 11.3 11.3 78 2.0 SW 22 35 12 19 1011.1 1011.1 1.0
22/05:30pm 14.8 11.5 11.6 81 1.7 WSW 20 30 11 16 1010.8 1010.8 1.0
22/05:00pm 15.3 12.1 11.9 80 1.8 WSW 20 28 11 15 1010.6 1010.6 1.0
22/04:30pm 15.4 12.5 12.2 81 1.7 WSW 19 22 10 12 1010.5 1010.5 1.0
22/04:00pm 16.2 12.1 12.7 80 1.9 WSW 26 37 14 20 1010.2 1010.2 1.0
22/03:30pm 17.2 13.2 13.1 77 2.3 WSW 26 37 14 20 1009.8 1009.8 1.0
22/03:00pm 17.9 13.6 13.2 74 2.7 WSW 28 37 15 20 1009.4 1009.4 1.0
22/02:30pm 17.4 13.4 12.9 75 2.5 WSW 26 37 14 20 1009.0 1009.0 1.0
22/02:00pm 17.0 11.7 13.1 78 2.2 WSW 33 43 18 23 1009.0 1009.0 1.0
22/01:30pm 17.7 13.4 13.2 75 2.5 WSW 28 41 15 22 1008.6 1008.6 1.0
22/01:00pm 17.6 12.5 13.7 78 2.2 W 33 46 18 25 1008.3 1008.3 1.0
22/12:30pm 16.7 12.6 13.8 83 1.6 W 28 35 15 19 1008.2 1008.2 1.0
22/12:00pm 17.4 13.3 14.9 85 1.5 W 30 41 16 22 1008.2 1008.2 0.8
22/11:30am 16.5 12.9 14.2 86 1.3 W 26 33 14 18 1008.3 1008.3 0.8
22/11:00am 17.9 13.7 13.4 75 2.6 WNW 28 41 15 22 1008.1 1008.1 0.4
22/10:30am 17.3 13.6 14.0 81 1.9 WNW 26 37 14 20 1008.2 1008.2 0.4
22/10:00am 16.5 11.7 14.0 85 1.4 WNW 32 44 17 24 1008.1 1008.1 0.4
22/09:45am 16.9 12.5 14.2 84 1.5 NW 30 41 16 22 1007.8 1007.8 0.4
22/09:30am 15.9 11.8 13.7 87 1.2 WNW 28 37 15 20 1007.9 1007.9 0.4
22/09:00am 16.5 13.4 14.5 88 1.1 NW 24 39 13 21 1007.4 1007.4 28.8
22/08:30am 16.3 12.8 14.5 89 1.0 NW 26 39 14 21 1007.1 1007.1 28.8
22/08:00am 15.1 12.2 14.1 94 0.6 N 22 28 12 15 1007.1 1007.1 28.8
22/07:41am 14.8 11.0 13.7 93 0.6 NNW 26 39 14 21 1006.8 1006.8 28.6
22/07:30am 14.8 11.1 14.0 95 0.5 NNW 26 44 14 24 1006.7 1006.7 28.6
22/07:09am 14.5 9.0 13.7 95 0.4 N 35 46 19 25 1006.9 1006.9 23.6
22/07:00am 14.5 10.4 13.7 95 0.4 NNW 28 41 15 22 1006.3 1006.3 21.4
22/06:30am 13.8 8.5 13.2 96 0.3 N 33 44 18 24 1006.6 1006.6 19.4
22/06:23am 13.8 7.7 13.0 95 0.4 N 37 54 20 29 1006.6 1006.6 18.6
22/06:00am 13.7 8.0 12.9 95 0.4 N 35 52 19 28 1006.9 1006.9 14.0
22/05:45am 13.7 7.2 12.9 95 0.4 N 39 48 21 26 1007.2 1007.2 11.6
22/05:44am 13.7 7.6 12.9 95 0.4 N 37 46 20 25 1007.2 1007.2 11.4
22/05:38am 13.9 8.2 13.1 95 0.4 N 35 43 19 23 1007.5 1007.5 10.8
22/05:30am 13.9 8.2 13.1 95 0.4 N 35 46 19 25 1007.5 1007.5 10.6
22/05:07am 13.6 9.2 12.8 95 0.4 N 28 43 15 23 1008.2 1008.2 9.8
22/05:06am 13.5 9.0 12.7 95 0.4 N 28 43 15 23 1008.2 1008.2 9.8
22/05:00am 13.5 8.1 12.7 95 0.4 N 33 43 18 23 1008.5 1008.5 9.8
22/04:43am 13.4 7.9 12.5 94 0.5 N 33 44 18 24 1008.5 1008.5 8.6
22/04:30am 13.7 8.4 12.6 93 0.6 N 32 41 17 22 1008.7 1008.7 7.0
22/04:28am 13.7 8.4 12.6 93 0.6 N 32 41 17 22 1008.8 1008.8 6.8
22/04:06am 13.6 8.2 12.3 92 0.7 N 32 41 17 22 1009.0 1009.0 5.2
22/04:00am 13.7 8.4 12.4 92 0.7 N 32 43 17 23 1009.1 1009.1 5.2
22/03:30am 13.4 7.9 11.8 90 0.9 N 32 41 17 22 1009.5 1009.5 5.0
22/03:00am 13.3 8.2 11.9 91 0.8 N 30 43 16 23 1009.8 1009.8 5.0
22/02:30am 13.2 7.8 12.3 94 0.5 N 32 41 17 22 1010.3 1010.3 5.0
22/02:00am 13.3 8.7 12.2 93 0.6 N 28 37 15 20 1010.9 1010.9 4.4
22/01:30am 13.2 9.0 12.3 94 0.5 N 26 35 14 19 1011.6 1011.6 4.0
22/01:00am 13.2 9.3 12.1 93 0.6 N 24 35 13 19 1011.7 1011.7 3.6
22/12:30am 13.1 9.2 12.2 94 0.5 N 24 30 13 16 1012.3 1012.3 3.4
22/12:00am 13.1 9.9 12.0 93 0.6 N 20 26 11 14 1012.9 1012.9 2.4
 
Date/Time
WST
Temp
°C
App
Temp
°C
Dew
Point
°C
Rel
Hum
%
Delta-T
°C
Wind Press
QNH
hPa
Press
MSL
hPa
Rain since
9am
mm
Dir  Spd
km/h
Gust
km/h
Spd
kts
Gust
kts
21/11:30pm 13.2 10.0 11.9 92 0.7 N 20 28 11 15 1013.2 1013.2 1.2
21/11:00pm 13.2 9.2 11.9 92 0.7 N 24 32 13 17 1013.4 1013.4 1.2
21/10:30pm 13.2 10.9 11.8 91 0.7 NNW 15 20 8 11 1013.8 1013.8 1.0
21/10:00pm 13.4 10.1 11.5 88 1.0 NNW 20 26 11 14 1014.1 1014.1 0.6
21/09:30pm 13.7 9.4 10.9 83 1.5 N 24 33 13 18 1013.8 1013.8 0.2
21/09:00pm 14.1 9.8 10.9 81 1.7 N 24 32 13 17 1014.1 1014.1 0.2
21/08:30pm 13.9 10.0 10.9 82 1.6 N 22 30 12 16 1014.2 1014.2 0.2
21/08:00pm 14.0 9.6 10.4 79 1.9 N 24 30 13 16 1014.3 1014.3 0.2
21/07:30pm 14.1 10.1 10.5 79 1.9 N 22 28 12 15 1014.5 1014.5 0.2
21/07:00pm 14.5 10.8 10.3 76 2.2 N 20 24 11 13 1014.3 1014.3 0.2
21/06:30pm 14.9 11.5 10.5 75 2.3 N 19 24 10 13 1014.2 1014.2 0.2
21/06:00pm 14.7 11.2 10.1 74 2.4 N 19 26 10 14 1014.2 1014.2 0.2
21/05:30pm 15.6 12.8 9.9 69 3.0 NNW 15 17 8 9 1014.3 1014.3 0.2
21/05:00pm 15.7 12.6 10.2 70 2.9 NW 17 20 9 11 1014.3 1014.3 0.2
21/04:30pm 16.9 12.8 10.1 64 3.6 NW 22 28 12 15 1014.4 1014.4 0.2
21/04:00pm 17.4 12.5 9.8 61 4.0 NW 26 37 14 20 1014.4 1014.4 0.2
21/03:30pm 19.0 12.9 9.8 55 4.9 NW 32 41 17 22 1014.1 1014.1 0.2
21/03:00pm 19.0 12.6 8.4 50 5.5 NW 32 43 17 23 1014.0 1014.0 0.2
21/02:30pm 19.8 14.7 9.1 50 5.6 WNW 26 37 14 20 1013.9 1013.9 0.2
21/02:00pm 20.4 15.2 9.0 48 6.0 NW 26 35 14 19 1014.0 1014.0 0.2
21/01:30pm 19.8 14.8 9.7 52 5.4 NW 26 41 14 22 1014.2 1014.2 0.2

Other Formats:

Comma delimited format used in spreadsheet applications
http://www.bom.gov.au/fwo/IDW60801/IDW60801.94612.axf

JavaScript Object Notation format (JSON) in row-major order
http://www.bom.gov.au/fwo/IDW60801/IDW60801.94612.json